LTBA/IST METAR and TAF weather

Enter ICAO airport designator
Station Type Date Time Source
LTBA METAR 2020/01/28 11:20 UTC NOAA

LTBA 281120Z 20005KT 170V230 9999 SCT014 BKN030 11/07 Q1014 NOSIG


Station Type Date Time Source
LTBA Decoded METAR 2020/01/28 11:20 UTC NOAA

Istanbul / Ataturk, Turkey (LTBA) 40-58N 028-49E 37M
Jan 28, 2020 - 06:20 AM EST / 2020.01.28 1120 UTC
Wind: from the SSW (200 degrees) at 6 MPH (5 KT) (direction variable):0
Visibility: greater than 7 mile(s):0
Sky conditions: mostly cloudy
Temperature: 51 F (11 C)
Dew Point: 44 F (7 C)
Relative Humidity: 76%
Pressure (altimeter): 29.94 in. Hg (1014 hPa)
ob: LTBA 281120Z 20005KT 170V230 9999 SCT014 BKN030 11/07 Q1014 NOSIG
cycle: 11

Station Type Date Time Source
LTBA TAF 2020/01/28 12:03 UTC NOAA

TAF LTBA 281040Z 2812/2918 VRB02KT 9999 BKN030
BECMG 2813/2816 21012KT SCT035
BECMG 2904/2907 22018G28KT CAVOK
BECMG 2909/2912 SCT020 BKN080
BECMG 2912/2915 20008KT
TEMPO 2915/2918 4000 SHRA BKN025 BKN080

Example: see airport list